Aeroboteco Virtual Airline

Aeroboteco Virtual Airlines! Uma nuvem a frente.



 INFORMAÇÕES METEOROLÓGICAS
METAR FOR LEGR
ADDS - METARS form results

(1406 UTC 17 January 2019)
Data provider http://aviationweather.gov/metar/data/
 
METAR text: LEGR 171400Z 33006KT 290V350 9999 SCT050 11/02 Q1016
Conditions at: LEGR (GRANADA AIRPORT , ES) observed 1400 UTC 17 January 2019
Temperature: 11.0°C (52°F)
Dewpoint: 2.0°C (36°F) [RH = 54%]
Pressure (altimeter): 30.00 inches Hg (1016.0 mb)
Winds: from the NNW (330 degrees) at 7 MPH (6 knots; 3.1 m/s)
Visibility: 6 or more miles (10+ km)
Ceiling: at least 12,000 feet AGL
Clouds: scattered clouds at 5000 feet AGL
Weather: no significant weather observed at this time

METAR text: LEGR 171330Z 30004KT 230V020 9999 SCT050 12/02 Q1016
Conditions at: LEGR (GRANADA AIRPORT , ES) observed 1330 UTC 17 January 2019
Temperature: 12.0°C (54°F)
Dewpoint: 2.0°C (36°F) [RH = 50%]
Pressure (altimeter): 30.00 inches Hg (1016.0 mb)
Winds: from the WNW (300 degrees) at 5 MPH (4 knots; 2.1 m/s)
Visibility: 6 or more miles (10+ km)
Ceiling: at least 12,000 feet AGL
Clouds: scattered clouds at 5000 feet AGL
Weather: no significant weather observed at this time

Forecast for: LEGR (GRANADA AIRPORT , ES)
Text: TAF LEGR 170800Z 1709/1809 28004KT 9999 SCT040 TX13/1715Z TNM04/1808Z
Forecast period: 0900 UTC 17 January 2019 to 0900 UTC 18 January 2019
Forecast type: FROM: standard forecast or significant change
Winds: from the W (280 degrees) at 5 MPH (4 knots; 2.1 m/s)
Visibility: 6 or more miles 10+ km)
Ceiling: at least 12,000 feet AGL
Clouds: scattered clouds at 4000 feet AGL
Weather: no significant weather forecast for this period

 MAPA DO AEROPORTO

 INFORMAÇÕES DA PISTA
Pista 09 Tamanho da pista 9514 ft Largura da pista 148 ft
Elevação da pista 1842 ft Ranhura da pista 0 ft Proa da pista 90
Pista 27 Tamanho da pista 9514 ft Largura da pista 148 ft
Elevação da pista 1860 ft Ranhura da pista 0 ft Proa da pista 270

 FREQUÊNCIAS DO AEROPORTO
Tipo GND Nome GND Frequência 121.7 MHZ
Tipo TWR Nome TWR Frequência 118.85 MHZ

 AUXÍLIOS DE NAVEGAÇÃO PRÓXIMOS AO AEROPORTO
Tipo VOR-DME Nome Granada Frequência 113400 KHZ